.
WxDataArchive / Data Records for 2012-07-15
2012-07-14 July 2012 2012-07-16

Data Records for Sunday, 15 July 2012

Time	Temp	Chill	HIndex	Humid	Dewpt	 Wind 	HiWind	WindDir	Rain 	Barom 
-----	----	-----	------	-----	-----	------	------	-------	-----	----- 
00:00	74.6	74.6	74.6	78	67.3	0	1	90	0.00	30.021 
00:05	74.6	74.6	74.6	79	67.6	0	1	90	0.00	30.021 
00:10	74.6	74.6	74.6	79	67.6	0	0	---	0.00	30.021 
00:15	74.4	74.4	74.4	79	67.4	0	1	90	0.00	30.025 
00:20	74.4	74.4	74.4	80	67.8	0	1	90	0.00	30.025 
00:25	74.4	74.4	74.4	81	68.2	0	2	90	0.00	30.025 
00:30	74.4	74.4	74.4	81	68.2	0	1	90	0.00	30.024 
00:35	74.2	74.2	74.2	81	68.0	0	1	90	0.00	30.024 
00:40	74.0	74.0	74.0	82	68.1	0	1	90	0.00	30.024 
00:45	74.0	74.0	74.0	82	68.1	0	1	90	0.00	30.019 
00:50	73.9	73.9	73.9	83	68.4	0	1	90	0.00	30.019 
00:55	73.7	73.7	73.7	83	68.2	0	1	90	0.00	30.019 
01:00	73.7	73.7	73.7	83	68.2	0	0	---	0.00	30.016 
01:05	73.5	73.5	73.5	84	68.4	0	1	90	0.00	30.016 
01:10	73.5	73.5	73.5	84	68.4	0	0	---	0.00	30.016 
01:15	73.5	73.5	73.5	84	68.4	0	0	---	0.00	30.018 
01:20	73.3	73.3	73.3	84	68.2	0	0	---	0.00	30.018 
01:25	73.3	73.3	73.3	85	68.5	0	0	---	0.00	30.018 
01:30	73.2	73.2	73.2	85	68.4	0	0	---	0.00	30.015 
01:35	73.2	73.2	73.2	85	68.4	0	1	90	0.00	30.015 
01:40	73.0	73.0	73.0	85	68.2	0	0	---	0.00	30.015 
01:45	73.0	73.0	73.0	86	68.6	0	0	---	0.00	30.015 
01:50	72.8	72.8	72.8	86	68.4	0	0	---	0.00	30.015 
01:55	72.8	72.8	72.8	86	68.4	0	0	---	0.00	30.015 
02:00	72.7	72.7	72.7	87	68.6	0	1	90	0.00	30.014 
02:05	72.7	72.7	72.7	87	68.6	0	1	90	0.00	30.014 
02:10	72.7	72.7	72.7	87	68.6	0	0	---	0.00	30.014 
02:15	72.7	72.7	72.7	88	68.9	0	0	---	0.00	30.013 
02:20	72.5	72.5	72.5	88	68.7	0	0	---	0.00	30.013 
02:25	72.5	72.5	72.5	88	68.7	0	0	---	0.00	30.013 
02:30	72.5	72.5	72.5	88	68.7	0	0	---	0.00	30.011 
02:35	72.5	72.5	72.5	88	68.7	0	1	90	0.00	30.011 
02:40	72.5	72.5	72.5	88	68.7	0	0	---	0.00	30.011 
02:45	72.5	72.5	72.5	88	68.7	0	1	90	0.00	30.011 
02:50	72.5	72.5	72.5	88	68.7	0	1	90	0.00	30.011 
02:55	72.5	72.5	72.5	88	68.7	0	1	90	0.00	30.011 
03:00	72.7	72.7	72.7	87	68.6	0	1	90	0.00	30.012 
03:05	72.7	72.7	72.7	87	68.6	0	1	90	0.00	30.012 
03:10	72.7	72.7	72.7	87	68.6	0	1	90	0.00	30.012 
03:15	72.7	72.7	72.7	87	68.6	0	0	---	0.00	30.013 
03:20	72.7	72.7	72.7	87	68.6	0	1	90	0.00	30.013 
03:25	72.8	72.8	72.8	87	68.7	0	2	90	0.00	30.013 
03:30	72.8	72.8	72.8	87	68.7	0	1	90	0.00	30.006 
03:35	72.8	72.8	72.8	87	68.7	0	1	90	0.00	30.006 
03:40	73.0	73.0	73.0	87	68.9	0	1	90	0.00	30.006 
03:45	73.0	73.0	73.0	87	68.9	1	3	90	0.00	30.010 
03:50	73.0	73.0	73.0	87	68.9	0	2	90	0.00	30.010 
03:55	73.0	73.0	73.0	87	68.9	0	1	90	0.00	30.010 
04:00	73.0	73.0	73.0	87	68.9	0	1	90	0.00	30.006 
04:05	73.0	73.0	73.0	87	68.9	0	1	90	0.00	30.006 
04:10	73.0	73.0	73.0	87	68.9	0	2	90	0.00	30.006 
04:15	73.2	73.2	73.2	87	69.1	0	1	90	0.00	30.012 
04:20	73.2	73.2	73.2	87	69.1	0	1	90	0.00	30.012 
04:25	73.2	73.2	73.2	87	69.1	0	2	90	0.00	30.012 
04:30	73.2	73.2	73.2	87	69.1	0	1	90	0.00	30.007 
04:35	73.2	73.2	73.2	87	69.1	0	1	90	0.00	30.007 
04:40	73.2	73.2	73.2	87	69.1	0	2	90	0.00	30.007 
04:45	73.2	73.2	73.2	87	69.1	0	2	248	0.00	30.007 
04:50	73.2	73.2	73.2	87	69.1	0	1	248	0.00	30.007 
04:55	73.2	73.2	73.2	87	69.1	0	2	248	0.00	30.007 
05:00	73.2	73.2	73.2	87	69.1	0	1	248	0.00	30.012 
05:05	73.0	73.0	73.0	87	68.9	0	0	---	0.00	30.012 
05:10	73.0	73.0	73.0	87	68.9	0	1	248	0.00	30.012 
05:15	73.0	73.0	73.0	88	69.2	0	1	248	0.00	30.006 
05:20	72.8	72.8	72.8	88	69.0	0	1	248	0.00	30.006 
05:25	72.8	72.8	72.8	88	69.0	0	1	248	0.00	30.006 
05:30	72.8	72.8	72.8	88	69.0	0	1	248	0.00	30.017 
05:35	72.7	72.7	72.7	88	68.9	0	1	248	0.00	30.017 
05:40	72.7	72.7	72.7	88	68.9	0	2	248	0.00	30.017 
05:45	72.7	72.7	72.7	89	69.3	0	1	248	0.00	30.019 
05:50	72.7	72.7	72.7	89	69.3	0	1	248	0.00	30.019 
05:55	72.7	72.7	72.7	89	69.3	0	2	248	0.00	30.019 
06:00	72.7	72.7	72.7	89	69.3	0	1	248	0.00	30.021 
06:05	72.7	72.7	72.7	89	69.3	0	1	248	0.00	30.021 
06:10	72.7	72.7	72.7	89	69.3	0	1	248	0.00	30.021 
06:15	72.7	72.7	72.7	89	69.3	0	0	---	0.00	30.023 
06:20	72.5	72.5	72.5	89	69.1	0	1	248	0.00	30.023 
06:25	72.5	72.5	72.5	90	69.4	0	1	248	0.00	30.023 
06:30	72.5	72.5	72.5	90	69.4	0	2	248	0.00	30.026 
06:35	72.5	72.5	72.5	90	69.4	0	1	248	0.00	30.026 
06:40	72.5	72.5	72.5	90	69.4	0	1	248	0.00	30.026 
06:45	72.5	72.5	72.5	90	69.4	0	1	248	0.00	30.034 
06:50	72.5	72.5	72.5	90	69.4	0	2	248	0.00	30.034 
06:55	72.5	72.5	72.5	90	69.4	0	2	248	0.00	30.034 
07:00	72.5	72.5	72.5	90	69.4	0	1	248	0.00	30.036 
07:05	72.5	72.5	72.5	90	69.4	0	1	248	0.00	30.036 
07:10	72.5	72.5	72.5	90	69.4	0	1	248	0.00	30.036 
07:15	72.7	72.7	72.7	90	69.6	0	1	248	0.00	30.036 
07:20	72.7	72.7	72.7	90	69.6	0	2	248	0.00	30.036 
07:25	72.8	72.8	72.8	90	69.7	0	1	248	0.00	30.036 
07:30	73.0	73.0	73.0	90	69.9	0	2	248	0.00	30.037 
07:35	73.2	73.2	73.2	90	70.1	0	2	248	0.00	30.037 
07:40	73.3	73.3	73.3	89	69.9	1	3	315	0.00	30.037 
07:45	73.5	73.5	73.5	89	70.0	0	1	315	0.00	30.043 
07:50	73.7	73.7	73.7	89	70.2	0	2	315	0.00	30.043 
07:55	73.7	73.7	73.7	88	69.9	1	2	315	0.00	30.043 
08:00	73.7	73.7	73.7	88	69.9	1	3	270	0.00	30.050 
08:05	73.9	73.9	73.9	88	70.1	1	4	270	0.00	30.050 
08:10	73.9	73.9	73.9	87	69.8	0	2	270	0.00	30.050 
08:15	74.0	74.0	74.0	87	69.9	1	3	270	0.00	30.053 
08:20	74.2	74.2	74.2	87	70.1	1	3	270	0.00	30.053 
08:25	74.2	74.2	74.2	86	69.7	1	3	270	0.00	30.053 
08:30	74.4	74.4	74.4	85	69.6	2	3	270	0.00	30.057 
08:35	74.4	74.4	74.4	85	69.6	1	3	270	0.00	30.057 
08:40	74.7	74.7	74.7	85	69.9	0	3	270	0.00	30.057 
08:45	75.1	75.1	75.2	84	69.9	1	4	270	0.00	30.054 
08:50	75.3	75.3	75.6	83	69.8	2	5	270	0.00	30.054 
08:55	75.4	75.4	75.9	82	69.5	1	4	270	0.00	30.054 
09:00	75.6	75.6	76.3	81	69.3	1	4	270	0.00	30.053 
09:05	75.8	75.8	76.7	80	69.2	1	4	270	0.00	30.053 
09:10	76.3	76.3	77.5	80	69.7	2	5	270	0.00	30.053 
09:15	76.5	76.5	77.9	78	69.1	2	5	270	0.00	30.055 
09:20	77.0	77.0	78.7	77	69.2	2	3	270	0.00	30.055 
09:25	77.2	77.2	79.0	76	69.0	2	4	270	0.00	30.055 
09:30	77.6	77.6	79.6	76	69.4	1	2	270	0.00	30.058 
09:35	77.7	77.7	79.7	75	69.1	2	6	270	0.00	30.058 
09:40	77.7	77.7	79.7	75	69.1	3	5	270	0.00	30.058 
09:45	78.1	78.1	80.3	74	69.1	2	5	270	0.00	30.063 
09:50	78.3	78.3	80.6	74	69.3	2	5	270	0.00	30.063 
09:55	78.3	78.3	80.6	73	68.9	2	5	270	0.00	30.063 
10:00	78.6	78.6	81.0	72	68.8	2	6	270	0.00	30.065 
10:05	79.2	79.2	81.9	72	69.4	2	3	270	0.00	30.065 
10:10	79.2	79.2	81.9	72	69.4	2	4	315	0.00	30.065 
10:15	79.0	79.0	81.4	70	68.4	2	4	315	0.00	30.065 
10:20	79.4	79.4	82.1	71	69.2	2	5	270	0.00	30.065 
10:25	80.1	80.1	83.0	69	69.0	2	4	270	0.00	30.065 
10:30	80.5	80.5	83.5	68	68.9	2	4	270	0.00	30.061 
10:35	80.7	80.7	83.8	68	69.1	2	4	270	0.00	30.061 
10:40	80.9	80.9	83.8	66	68.4	2	5	270	0.00	30.061 
10:45	81.2	81.2	84.3	66	68.7	1	4	270	0.00	30.053 
10:50	81.8	81.8	85.1	65	68.9	2	4	292	0.00	30.053 
10:55	82.2	82.2	85.7	65	69.2	1	3	292	0.00	30.053 
11:00	82.6	82.6	86.2	64	69.2	1	3	315	0.00	30.051 
11:05	83.4	83.4	87.0	62	69.0	2	4	292	0.00	30.051 
11:10	83.8	83.8	87.5	61	68.9	1	3	270	0.00	30.051 
11:15	84.1	84.1	87.4	59	68.2	2	4	270	0.00	30.049 
11:20	84.1	84.1	87.2	58	67.7	2	3	270	0.00	30.049 
11:25	84.1	84.1	87.2	58	67.7	2	4	270	0.00	30.049 
11:30	84.1	84.1	87.2	58	67.7	2	4	270	0.00	30.050 
11:35	84.5	84.5	87.3	56	67.0	2	4	270	0.00	30.050 
11:40	84.7	84.7	87.6	56	67.2	2	5	270	0.00	30.050 
11:45	84.7	84.7	87.6	56	67.2	2	4	270	0.00	30.049 
11:50	85.1	85.1	87.9	55	67.1	1	3	270	0.00	30.049 
11:55	85.7	85.7	88.3	53	66.6	1	4	270	0.00	30.049 
12:00	86.1	86.1	88.9	53	66.9	1	3	248	0.00	30.044 
12:05	86.5	86.5	89.3	52	66.7	2	4	248	0.00	30.044 
12:10	85.7	85.7	88.3	53	66.6	2	5	270	0.00	30.044 
12:15	85.5	85.5	88.3	54	66.9	3	5	270	0.00	30.046 
12:20	84.9	84.9	87.9	56	67.4	3	5	270	0.00	30.046 
12:25	85.3	85.3	87.7	53	66.2	2	4	292	0.00	30.046 
12:30	86.1	86.1	88.6	52	66.4	2	4	292	0.00	30.039 
12:35	86.3	86.3	89.3	53	67.1	3	6	292	0.00	30.039 
12:40	86.3	86.3	88.9	52	66.6	3	5	315	0.00	30.039 
12:45	86.5	86.5	88.6	50	65.6	2	5	270	0.00	30.034 
12:50	87.2	87.2	89.7	50	66.3	2	5	315	0.00	30.034 
12:55	88.2	88.2	91.0	49	66.6	2	5	270	0.00	30.034 
13:00	88.2	88.2	90.3	47	65.4	2	5	292	0.00	30.029 
13:05	88.8	88.8	90.9	46	65.3	2	5	270	0.00	30.029 
13:10	89.5	89.5	91.3	44	64.7	1	3	248	0.00	30.029 
13:15	89.9	89.9	90.9	41	63.0	2	5	270	0.00	30.026 
13:20	89.7	89.7	90.9	42	63.5	2	4	270	0.00	30.026 
13:25	90.3	90.3	91.8	42	64.0	2	5	248	0.00	30.026 
13:30	90.5	90.5	91.8	41	63.5	2	5	248	0.00	30.017 
13:35	90.5	90.5	91.4	40	62.8	2	4	225	0.00	30.017 
13:40	89.9	89.9	90.9	41	63.0	1	4	270	0.00	30.017 
13:45	90.1	90.1	91.2	41	63.2	1	4	270	0.00	30.015 
13:50	89.5	89.5	90.0	40	61.9	2	5	270	0.00	30.015 
13:55	89.3	89.3	90.3	42	63.2	2	5	270	0.00	30.015 
14:00	89.3	89.3	90.3	42	63.2	3	5	292	0.00	30.013 
14:05	88.8	88.8	89.9	43	63.4	3	5	270	0.00	30.013 
14:10	88.8	88.8	89.9	43	63.4	3	7	270	0.00	30.013 
14:15	88.8	88.8	90.2	44	64.0	1	4	292	0.00	30.002 
14:20	89.3	89.3	90.6	43	63.8	3	6	270	0.00	30.002 
14:25	89.9	89.9	91.6	43	64.4	1	5	270	0.00	30.002 
14:30	90.7	90.7	92.5	42	64.4	1	4	112	0.00	29.995 
14:35	91.4	91.4	92.8	40	63.6	2	6	248	0.00	29.995 
14:40	91.4	91.4	93.2	41	64.3	3	5	270	0.00	29.995 
14:45	91.4	91.4	93.2	41	64.3	3	6	270	0.00	29.984 
14:50	91.4	91.4	92.8	40	63.6	2	6	248	0.00	29.984 
14:55	91.2	91.2	92.9	41	64.2	3	6	270	0.00	29.984 
15:00	91.0	91.0	92.6	41	64.0	2	5	270	0.00	29.980 
15:05	91.4	91.4	93.2	41	64.3	2	5	270	0.00	29.980 
15:10	91.8	91.8	93.1	39	63.3	1	4	292	0.00	29.980 
15:15	91.8	91.8	93.1	39	63.3	3	6	270	0.00	29.973 
15:20	91.2	91.2	92.9	41	64.2	3	6	270	0.00	29.973 
15:25	91.2	91.2	92.5	40	63.5	2	9	270	0.00	29.973 
15:30	91.0	91.0	92.6	41	64.0	2	5	270	0.00	29.967 
15:35	91.0	91.0	92.6	41	64.0	2	5	270	0.00	29.967 
15:40	91.0	91.0	92.6	41	64.0	1	4	292	0.00	29.967 
15:45	91.0	91.0	92.2	40	63.3	2	5	270	0.00	29.958 
15:50	91.2	91.2	92.1	39	62.7	3	7	270	0.00	29.958 
15:55	91.2	91.2	91.8	38	62.0	3	6	292	0.00	29.958 
16:00	91.0	91.0	91.5	38	61.8	3	7	270	0.00	29.953 
16:05	90.7	90.7	91.4	39	62.3	4	9	270	0.00	29.953 
16:10	91.0	91.0	91.8	39	62.6	3	7	270	0.00	29.953 
16:15	91.0	91.0	91.5	38	61.8	4	7	270	0.00	29.951 
16:20	90.5	90.5	91.1	39	62.1	4	7	270	0.00	29.951 
16:25	90.7	90.7	91.7	40	63.0	4	9	270	0.00	29.951 
16:30	91.0	91.0	91.8	39	62.6	3	5	248	0.00	29.944 
16:35	91.4	91.4	92.4	39	62.9	4	7	270	0.00	29.944 
16:40	91.4	91.4	92.8	40	63.6	3	6	270	0.00	29.944 
16:45	91.2	91.2	91.8	38	62.0	4	7	270	0.00	29.942 
16:50	90.7	90.7	91.7	40	63.0	4	8	270	0.00	29.942 
16:55	91.0	91.0	92.2	40	63.3	4	7	270	0.00	29.942 
17:00	91.0	91.0	91.5	38	61.8	3	6	270	0.00	29.945 
17:05	91.2	91.2	91.8	38	62.0	3	6	270	0.00	29.945 
17:10	91.2	91.2	91.8	38	62.0	2	5	270	0.00	29.945 
17:15	90.7	90.7	91.7	40	63.0	3	6	315	0.00	29.949 
17:20	90.5	90.5	91.8	41	63.5	2	5	270	0.00	29.949 
17:25	90.7	90.7	91.7	40	63.0	2	6	248	0.00	29.949 
17:30	91.2	91.2	92.5	40	63.5	2	4	248	0.00	29.936 
17:35	91.6	91.6	92.7	39	63.1	2	4	248	0.00	29.936 
17:40	91.8	91.8	92.7	38	62.5	2	6	248	0.00	29.936 
17:45	91.6	91.6	92.7	39	63.1	2	5	292	0.00	29.935 
17:50	91.6	91.6	92.7	39	63.1	3	6	270	0.00	29.935 
17:55	91.2	91.2	92.1	39	62.7	3	5	248	0.00	29.935 
18:00	90.7	90.7	91.7	40	63.0	2	5	315	0.00	29.934 
18:05	90.5	90.5	91.8	41	63.5	3	5	270	0.00	29.934 
18:10	90.5	90.5	91.4	40	62.8	2	4	292	0.00	29.934 
18:15	90.5	90.5	91.8	41	63.5	2	4	270	0.00	29.933 
18:20	91.2	91.2	92.5	40	63.5	2	6	292	0.00	29.933 
18:25	91.2	91.2	92.5	40	63.5	2	5	338	0.00	29.933 
18:30	91.2	91.2	92.9	41	64.2	2	5	270	0.00	29.926 
18:35	91.2	91.2	92.1	39	62.7	3	5	292	0.00	29.926 
18:40	90.5	90.5	91.8	41	63.5	3	7	270	0.00	29.926 
18:45	90.5	90.5	92.2	42	64.2	2	4	315	0.00	29.932 
18:50	90.5	90.5	91.8	41	63.5	2	4	292	0.00	29.932 
18:55	90.7	90.7	92.5	42	64.4	2	4	270	0.00	29.932 
19:00	90.7	90.7	91.7	40	63.0	2	5	270	0.00	29.934 
19:05	91.0	91.0	91.8	39	62.6	2	5	270	0.00	29.934 
19:10	91.2	91.2	91.1	36	60.5	3	9	270	0.00	29.934 
19:15	91.2	91.2	91.1	36	60.5	3	6	315	0.00	29.935 
19:20	91.0	91.0	90.8	36	60.3	3	6	270	0.00	29.935 
19:25	91.0	91.0	90.8	36	60.3	3	6	270	0.00	29.935 
19:30	91.0	91.0	91.1	37	61.1	2	8	248	0.00	29.936 
19:35	91.2	91.2	91.4	37	61.2	1	3	270	0.00	29.936 
19:40	91.0	91.0	91.1	37	61.1	2	5	270	0.00	29.936 
19:45	90.5	90.5	90.7	38	61.4	3	7	270	0.00	29.946 
19:50	90.1	90.1	89.9	37	60.3	3	7	270	0.00	29.946 
19:55	89.7	89.7	89.3	37	59.9	2	5	315	0.00	29.946 
20:00	89.7	89.7	89.3	37	59.9	1	4	292	0.00	29.945 
20:05	89.5	89.5	89.3	38	60.5	1	3	292	0.00	29.945 
20:10	89.3	89.3	89.1	38	60.3	2	5	292	0.00	29.945 
20:15	89.0	89.0	89.0	39	60.8	2	4	292	0.00	29.951 
20:20	88.8	88.8	88.7	39	60.6	2	4	292	0.00	29.951 
20:25	88.4	88.4	88.4	40	61.0	2	4	292	0.00	29.951 
20:30	88.2	88.2	88.4	41	61.5	2	5	315	0.00	29.953 
20:35	87.8	87.8	87.9	41	61.1	1	3	292	0.00	29.953 
20:40	87.6	87.6	87.6	41	60.9	1	3	292	0.00	29.953 
20:45	87.4	87.4	87.6	42	61.5	1	3	292	0.00	29.961 
20:50	87.0	87.0	87.4	43	61.8	1	3	292	0.00	29.961 
20:55	86.7	86.7	87.0	43	61.5	0	1	292	0.00	29.961 
21:00	86.5	86.5	87.0	44	62.0	1	3	292	0.00	29.961 
21:05	86.3	86.3	86.7	44	61.8	1	3	292	0.00	29.961 
21:10	86.1	86.1	86.7	45	62.2	1	3	292	0.00	29.961 
21:15	85.9	85.9	86.4	45	62.1	0	2	292	0.00	29.966 
21:20	85.7	85.7	86.2	45	61.9	0	1	292	0.00	29.966 
21:25	85.5	85.5	86.2	46	62.3	0	2	292	0.00	29.966 
21:30	85.1	85.1	85.7	46	62.0	0	1	292	0.00	29.967 
21:35	84.9	84.9	85.6	47	62.4	0	1	292	0.00	29.967 
21:40	84.7	84.7	85.4	47	62.2	0	0	---	0.00	29.967 
21:45	84.3	84.3	85.1	48	62.4	0	0	---	0.00	29.969 
21:50	84.1	84.1	84.8	48	62.3	0	0	---	0.00	29.969 
21:55	84.0	84.0	84.9	49	62.8	0	0	---	0.00	29.969 
22:00	83.6	83.6	84.4	49	62.4	0	0	---	0.00	29.975 
22:05	83.4	83.4	84.4	50	62.8	0	0	---	0.00	29.975 
22:10	83.2	83.2	84.1	50	62.6	0	0	---	0.00	29.975 
22:15	82.8	82.8	83.8	51	62.8	0	0	---	0.00	29.979 
22:20	82.6	82.6	83.6	51	62.6	0	0	---	0.00	29.979 
22:25	82.2	82.2	83.3	52	62.8	0	0	---	0.00	29.979 
22:30	81.8	81.8	83.0	53	63.0	0	0	---	0.00	29.982 
22:35	81.4	81.4	82.5	53	62.6	0	0	---	0.00	29.982 
22:40	81.2	81.2	82.5	54	62.9	0	0	---	0.00	29.982 
22:45	81.1	81.1	82.5	55	63.4	0	0	---	0.00	29.985 
22:50	80.7	80.7	82.0	55	63.0	0	0	---	0.00	29.985 
22:55	80.3	80.3	81.7	56	63.1	0	0	---	0.00	29.985 
23:00	79.9	79.9	81.4	57	63.3	0	0	---	0.00	29.987 
23:05	79.6	79.6	81.1	57	63.0	0	0	---	0.00	29.987 
23:10	79.4	79.4	80.9	58	63.3	0	0	---	0.00	29.987 
23:15	79.2	79.2	80.7	58	63.1	0	0	---	0.00	29.989 
23:20	78.8	78.8	80.3	58	62.8	0	0	---	0.00	29.989 
23:25	78.6	78.6	80.3	60	63.5	0	0	---	0.00	29.989 
23:30	78.1	78.1	79.8	60	63.1	0	0	---	0.00	29.988 
23:35	77.7	77.7	79.4	60	62.7	0	0	---	0.00	29.988 
23:40	77.6	77.6	79.3	60	62.6	0	0	---	0.00	29.988 
23:45	77.4	77.4	79.1	61	62.9	0	0	---	0.00	29.990 
23:50	77.0	77.0	78.8	62	63.0	0	0	---	0.00	29.990 
23:55	76.8	76.8	78.6	63	63.2	0	0	---	0.00	29.990 

CoCoRaHS
IN-AL-39
A2 Web Hosting
Creative Commons License
GoDaddy
search engine by freefind advanced

loaded 2018-11-17 23:44:25 • last modified 2010-11-18 10:43:29
Privacy PolicyDisclaimer
• wx.awcolley.com is powered by PmWiki v.2002016 •
• all content (unless otherwise noted) © 2018 A W Colley